Weather at Danville Airport

Public forecast

Using degrees Fahrenheit for public forecast. Weather courtesy of forecast.io.

Closest aviation weather report (METAR) to Danville Airport

Closest report is Penn Valley Airport, 12.8 nm (23.6 km) SW. Retrieved 2021/10/19 22:53 UTC (53 minutes ago):

KSEG 192253Z AUTO 00000KT 6SM HZ CLR 14/07 A3003 RMK AO2 SLP169 T01390072

Closest aviation forecast (TAF) to Danville Airport

Closest forecast is Williamsport Regional Airport, 21.5 nm (39.8 km) NW. Retrieved 2021/10/19 18:22 UTC (5 hours ago):

TAF KIPT 191720Z 1918/2018 27008G15KT P6SM SKC FM192200 27008KT P6SM SKC FM200400 27003KT 6SM BR BKN250 FM201400 27009G15KT P6SM FEW070